Time;durP1;ratioP1;P1;durP2;ratioP2;P2;SDS_P1;SDS_P2;PMS_P1;PMS_P2;Temp;Humidity;BMP_temperature;BMP_pressure;BME280_temperature;BME280_humidity;BME280_pressure;Samples;Min_cycle;Max_cycle;Signal;HPM_P1;HPM_P2
2021/03/14 00:00:40;;;;;;;4.58;4.28;;;;;;;24.23;26.74;98900.33;1780204;79;22981;-8
2021/03/14 00:03:10;;;;;;;4.62;4.22;;;;;;;24.24;26.75;98901.16;1785608;79;21228;-8
2021/03/14 00:05:40;;;;;;;3.92;3.60;;;;;;;24.23;26.75;98893.60;1805679;78;21183;-8
2021/03/14 00:08:08;;;;;;;4.85;4.35;;;;;;;24.23;26.79;98895.45;1789056;78;21219;-8
2021/03/14 00:10:44;;;;;;;3.87;3.58;;;;;;;24.22;26.79;98890.56;1791706;79;21208;-8
2021/03/14 00:13:14;;;;;;;4.53;4.12;;;;;;;24.23;26.79;98884.70;1735017;79;27483;-8
2021/03/14 00:15:41;;;;;;;4.97;4.47;;;;;;;24.23;26.83;98888.23;1789706;78;21273;-8
2021/03/14 00:18:09;;;;;;;4.35;3.95;;;;;;;24.24;26.82;98885.03;1747383;78;21195;-8
2021/03/14 00:20:37;;;;;;;6.20;4.33;;;;;;;24.23;26.83;98877.98;1785950;79;21140;-8
2021/03/14 00:23:06;;;;;;;4.75;3.98;;;;;;;24.23;26.83;98884.70;1767349;79;21645;-8
2021/03/14 00:25:33;;;;;;;4.37;3.98;;;;;;;24.23;26.82;98880.67;1752915;81;21078;-8
2021/03/14 00:28:05;;;;;;;4.20;3.90;;;;;;;24.23;26.89;98876.64;1764788;79;21101;-8
2021/03/14 00:30:32;;;;;;;4.40;4.00;;;;;;;24.23;26.88;98871.27;1800436;78;21153;-8
2021/03/14 00:33:00;;;;;;;4.00;3.70;;;;;;;24.24;26.87;98871.59;1758896;80;21148;-9
2021/03/14 00:35:27;;;;;;;3.98;3.67;;;;;;;24.24;26.86;98872.45;1786788;79;21606;-8
2021/03/14 00:37:55;;;;;;;3.90;3.60;;;;;;;24.25;26.86;98869.26;1765770;79;21078;-9
2021/03/14 00:40:25;;;;;;;4.53;3.92;;;;;;;24.25;26.88;98873.29;1760757;79;21147;-9
2021/03/14 00:42:54;;;;;;;4.83;4.10;;;;;;;24.24;26.91;98875.14;1739088;79;21585;-9
2021/03/14 00:45:24;;;;;;;4.37;3.98;;;;;;;24.25;26.89;98875.98;1755753;79;21633;-9
2021/03/14 00:47:51;;;;;;;3.95;3.65;;;;;;;24.24;26.92;98874.28;1744486;79;21160;-9
2021/03/14 00:50:19;;;;;;;4.58;4.17;;;;;;;24.25;26.95;98865.23;1789725;79;21614;-9
2021/03/14 00:52:47;;;;;;;4.58;3.80;;;;;;;24.26;26.94;98870.95;1754079;79;21161;-9
2021/03/14 00:55:14;;;;;;;4.42;4.12;;;;;;;24.26;26.97;98866.92;1793209;78;21197;-9
2021/03/14 00:57:41;;;;;;;4.20;3.80;;;;;;;24.26;26.95;98861.55;1760803;79;21197;-9
2021/03/14 01:00:11;;;;;;;4.85;3.98;;;;;;;24.26;26.99;98858.86;1772404;78;21200;-9
2021/03/14 01:02:38;;;;;;;4.12;3.83;;;;;;;24.24;27.02;98859.02;1762787;80;21149;-9
2021/03/14 01:05:11;;;;;;;4.47;4.08;;;;;;;24.25;27.04;98867.91;1715275;80;21224;-9
2021/03/14 01:07:40;;;;;;;5.22;3.90;;;;;;;24.26;27.04;98866.92;1738962;80;21159;-9
2021/03/14 01:10:11;;;;;;;4.05;3.75;;;;;;;24.26;27.05;98861.55;1744264;79;21219;-8
2021/03/14 01:12:39;;;;;;;4.35;4.00;;;;;;;24.26;27.04;98864.23;1718929;80;21157;-9
2021/03/14 01:15:12;;;;;;;3.67;3.37;;;;;;;24.25;27.04;98866.56;1747571;80;21168;-9
2021/03/14 01:17:41;;;;;;;4.03;3.72;;;;;;;24.24;27.04;98847.40;1751070;78;22106;-9
2021/03/14 01:20:16;;;;;;;4.10;3.70;;;;;;;24.25;27.07;98859.84;1750961;78;21144;-9
2021/03/14 01:22:44;;;;;;;3.45;3.25;;;;;;;24.24;27.08;98864.39;1809743;78;21112;-9
2021/03/14 01:25:12;;;;;;;3.62;3.42;;;;;;;24.25;27.10;98858.50;1790559;79;21089;-9
2021/03/14 01:27:47;;;;;;;4.33;4.03;;;;;;;24.24;27.13;98852.30;1774721;78;21165;-9
2021/03/14 01:30:18;;;;;;;5.12;3.42;;;;;;;24.24;27.13;98854.12;1782701;79;23506;-9
2021/03/14 01:32:47;;;;;;;4.28;3.55;;;;;;;24.25;27.15;98847.75;1762678;79;21211;-9
2021/03/14 01:35:15;;;;;;;4.45;4.10;;;;;;;24.24;27.13;98843.37;1759474;79;21178;-9
2021/03/14 01:37:44;;;;;;;4.12;3.72;;;;;;;24.22;27.14;98844.03;1762679;79;21184;-9
2021/03/14 01:40:15;;;;;;;4.37;3.80;;;;;;;24.17;27.13;98831.05;1788120;79;21656;-9
2021/03/14 01:42:42;;;;;;;4.42;4.03;;;;;;;24.13;27.10;98837.76;1764967;80;21171;-9
2021/03/14 01:45:13;;;;;;;4.40;3.65;;;;;;;24.07;27.08;98836.55;1787879;79;21168;-9
2021/03/14 01:47:47;;;;;;;4.12;3.72;;;;;;;24.02;27.20;98836.14;1724683;79;21740;-9
2021/03/14 01:50:22;;;;;;;4.80;4.03;;;;;;;23.97;27.21;98835.77;1787845;79;21194;-9
2021/03/14 01:52:51;;;;;;;4.80;4.40;;;;;;;23.91;27.19;98832.38;1758623;79;21807;-9
2021/03/14 01:55:21;;;;;;;4.85;4.37;;;;;;;23.88;27.12;98834.03;1750334;81;21143;-9
2021/03/14 01:57:49;;;;;;;6.05;4.03;;;;;;;23.83;27.18;98830.97;1790578;79;21197;-9
2021/03/14 02:00:24;;;;;;;4.62;4.20;;;;;;;23.78;27.20;98833.24;1779775;79;21180;-9
2021/03/14 02:02:51;;;;;;;4.72;4.22;;;;;;;23.70;27.16;98828.15;1742088;79;21625;-9
2021/03/14 02:05:20;;;;;;;4.95;4.10;;;;;;;23.66;27.22;98833.47;1781260;78;21128;-9
2021/03/14 02:07:51;;;;;;;4.50;4.05;;;;;;;23.62;27.21;98842.84;1770407;79;22175;-8
2021/03/14 02:10:27;;;;;;;4.72;4.33;;;;;;;23.57;27.29;98843.80;1742098;80;21239;-9
2021/03/14 02:13:11;;;;;;;4.10;3.80;;;;;;;23.54;27.22;98844.94;1755339;78;21172;-9
2021/03/14 02:15:57;;;;;;;;;;;;;;;23.50;27.33;98856.99;1748267;80;21693;-8
2021/03/14 02:18:25;;;;;;;3.90;3.60;;;;;;;23.47;27.30;98860.45;1737803;79;20475;-8
2021/03/14 02:20:53;;;;;;;5.92;3.58;;;;;;;23.44;27.38;98866.98;1781301;79;21173;-8
2021/03/14 02:23:53;;;;;;;4.58;3.87;;;;;;;23.41;27.37;98859.73;1747346;79;21145;-9
2021/03/14 02:26:38;;;;;;;4.53;4.12;;;;;;;23.37;27.38;98857.86;1763969;79;21547;-8
2021/03/14 02:29:14;;;;;;;4.67;4.28;;;;;;;23.35;27.43;98855.80;1764240;79;21215;-8
2021/03/14 02:31:41;;;;;;;5.05;4.00;;;;;;;23.32;27.50;98852.09;1764111;80;21200;-8
2021/03/14 02:34:16;;;;;;;4.20;3.80;;;;;;;23.30;27.52;98854.06;1772188;79;21194;-9
2021/03/14 02:36:44;;;;;;;4.42;4.10;;;;;;;23.27;27.53;98849.86;1729374;79;21315;-8
2021/03/14 02:39:19;;;;;;;4.03;3.70;;;;;;;23.26;27.57;98854.03;1705967;81;21184;-8
2021/03/14 02:41:52;;;;;;;5.05;4.10;;;;;;;23.24;27.55;98851.49;1738056;79;21226;-9
2021/03/14 02:44:23;;;;;;;3.98;3.62;;;;;;;23.23;27.60;98845.77;1756179;80;21138;-8
2021/03/14 02:46:51;;;;;;;3.98;3.67;;;;;;;23.21;27.62;98850.45;1765976;79;22215;-8
2021/03/14 02:49:22;;;;;;;4.08;3.58;;;;;;;23.21;27.61;98849.61;1742779;79;21203;-8
2021/03/14 02:51:49;;;;;;;5.10;4.60;;;;;;;23.21;27.66;98855.81;1736942;80;21584;-8
2021/03/14 02:54:18;;;;;;;4.00;3.70;;;;;;;23.20;27.56;98858.17;1767145;79;21199;-8
2021/03/14 02:56:48;;;;;;;3.90;3.70;;;;;;;23.18;27.66;98854.77;1742162;79;21148;-8
2021/03/14 02:59:19;;;;;;;4.70;3.72;;;;;;;23.16;27.71;98859.45;1752709;79;21204;-8
2021/03/14 03:01:48;;;;;;;3.92;3.65;;;;;;;23.15;27.63;98859.13;1763905;79;21196;-8
2021/03/14 03:04:23;;;;;;;3.85;3.55;;;;;;;23.12;27.76;98864.27;1790617;78;21627;-8
2021/03/14 03:06:53;;;;;;;4.03;3.62;;;;;;;23.12;27.78;98863.44;1720119;80;21184;-8
2021/03/14 03:09:20;;;;;;;4.12;3.67;;;;;;;23.10;27.86;98858.70;1732253;80;21248;-8
2021/03/14 03:11:51;;;;;;;4.30;3.90;;;;;;;23.10;27.89;98850.64;1735104;81;21187;-8
2021/03/14 03:14:19;;;;;;;4.50;4.10;;;;;;;23.09;27.84;98862.39;1759940;79;21610;-8
2021/03/14 03:16:49;;;;;;;4.17;3.30;;;;;;;23.08;27.83;98864.23;1732494;81;21188;-8
2021/03/14 03:19:18;;;;;;;4.45;4.05;;;;;;;23.08;27.83;98858.00;1747115;80;22215;-8
2021/03/14 03:21:46;;;;;;;4.28;3.92;;;;;;;23.07;27.82;98867.06;1742958;79;21133;-8
2021/03/14 03:24:14;;;;;;;4.33;3.92;;;;;;;23.05;27.95;98862.29;1742595;80;21188;-8
2021/03/14 03:26:47;;;;;;;4.72;4.30;;;;;;;23.03;27.93;98862.94;1750143;80;21176;-9
2021/03/14 03:29:17;;;;;;;4.55;4.17;;;;;;;23.02;27.81;98877.38;1761907;79;21189;-8
2021/03/14 03:31:46;;;;;;;4.12;3.83;;;;;;;23.00;27.88;98872.16;1751170;80;21199;-8
2021/03/14 03:34:14;;;;;;;4.80;4.37;;;;;;;22.99;27.99;98868.59;1745196;80;21208;-8
2021/03/14 03:36:44;;;;;;;4.30;3.95;;;;;;;22.99;28.03;98867.77;1745326;80;21173;-8
2021/03/14 03:39:13;;;;;;;4.90;4.50;;;;;;;22.97;28.01;98859.86;1708574;81;21511;-8
2021/03/14 03:41:58;;;;;;;5.50;5.00;;;;;;;22.96;28.01;98854.17;1768450;80;21662;-8
2021/03/14 03:44:26;;;;;;;4.90;4.53;;;;;;;22.95;27.97;98847.10;1746933;80;21172;-8
2021/03/14 03:46:57;;;;;;;5.85;5.22;;;;;;;22.95;27.97;98848.95;1750362;80;21135;-8
2021/03/14 03:49:28;;;;;;;7.25;4.97;;;;;;;22.94;27.88;98833.84;1717539;80;21218;-8
2021/03/14 03:51:55;;;;;;;6.45;5.80;;;;;;;22.92;27.89;98832.64;1724904;80;21168;-9
2021/03/14 03:54:22;;;;;;;5.47;5.00;;;;;;;22.91;27.85;98838.98;1756366;80;21148;-8
2021/03/14 03:56:51;;;;;;;5.65;5.15;;;;;;;22.89;27.94;98834.27;1744656;79;21128;-8
2021/03/14 03:59:18;;;;;;;6.55;5.00;;;;;;;22.88;27.97;98838.44;1768561;79;21165;-8
2021/03/14 04:01:45;;;;;;;5.60;5.00;;;;;;;22.86;28.07;98835.91;1768143;79;21124;-8
2021/03/14 04:04:14;;;;;;;4.70;4.28;;;;;;;22.84;28.07;98833.88;1764577;80;21227;-9
2021/03/14 04:06:44;;;;;;;5.58;5.08;;;;;;;22.83;28.09;98829.52;1748682;80;21160;-8
2021/03/14 04:09:11;;;;;;;5.42;4.92;;;;;;;22.82;28.10;98836.70;1739171;78;21214;-8
2021/03/14 04:11:40;;;;;;;6.30;5.40;;;;;;;22.81;28.12;98831.48;1771194;80;21098;-8
2021/03/14 04:14:10;;;;;;;5.90;5.37;;;;;;;22.82;28.07;98835.87;1772064;80;21201;-8
2021/03/14 04:16:38;;;;;;;5.67;5.20;;;;;;;22.81;28.01;98826.13;1778387;80;21160;-8
2021/03/14 04:19:13;;;;;;;5.83;5.22;;;;;;;22.80;28.07;98821.77;1765250;80;21432;-8
2021/03/14 04:21:42;;;;;;;5.25;4.83;;;;;;;22.79;28.11;98822.24;1751413;80;21195;-8
2021/03/14 04:24:12;;;;;;;6.35;5.75;;;;;;;22.77;28.11;98821.55;1770047;80;21307;-8
2021/03/14 04:26:42;;;;;;;7.45;6.55;;;;;;;22.78;28.14;98818.40;1761075;79;21870;-8
2021/03/14 04:29:10;;;;;;;6.92;5.47;;;;;;;22.77;28.07;98820.21;1732862;79;21191;-8
2021/03/14 04:31:43;;;;;;;7.37;6.10;;;;;;;22.76;28.10;98810.97;1744252;79;21175;-8
2021/03/14 04:34:13;;;;;;;6.65;5.95;;;;;;;22.75;28.06;98813.33;1754743;79;21678;-8
2021/03/14 04:36:41;;;;;;;6.35;5.75;;;;;;;22.73;28.10;98811.27;1788108;79;21176;-8
2021/03/14 04:39:09;;;;;;;5.90;5.30;;;;;;;22.72;28.08;98809.59;1774293;79;21187;-8
2021/03/14 04:41:37;;;;;;;7.20;6.28;;;;;;;22.73;28.15;98808.58;1758134;80;21134;-8
2021/03/14 04:44:07;;;;;;;6.47;5.87;;;;;;;22.72;28.14;98820.32;1772042;78;21188;-8
2021/03/14 04:46:34;;;;;;;6.45;5.62;;;;;;;22.71;28.17;98821.30;1744788;79;21218;-8
2021/03/14 04:49:02;;;;;;;7.92;6.80;;;;;;;22.70;28.19;98823.15;1779549;79;21108;-8
2021/03/14 04:51:36;;;;;;;6.92;6.22;;;;;;;22.70;28.07;98831.19;1756324;78;21398;-8
2021/03/14 04:54:04;;;;;;;6.05;5.62;;;;;;;22.70;28.21;98831.70;1729010;79;21138;-8
2021/03/14 04:56:31;;;;;;;6.00;5.37;;;;;;;22.68;28.11;98829.63;1730481;80;21049;-8
2021/03/14 04:58:59;;;;;;;6.65;6.00;;;;;;;22.68;28.20;98840.36;1804611;78;21161;-8
2021/03/14 05:01:26;;;;;;;6.45;5.83;;;;;;;22.67;28.15;98838.69;1732654;80;21450;-8
2021/03/14 05:03:55;;;;;;;6.75;5.97;;;;;;;22.65;28.14;98832.12;1749240;80;21153;-8
2021/03/14 05:06:23;;;;;;;6.70;5.67;;;;;;;22.65;28.23;98837.49;1748561;80;21149;-8
2021/03/14 05:08:51;;;;;;;6.47;5.85;;;;;;;22.65;28.19;98830.79;1743738;81;21492;-8
2021/03/14 05:11:20;;;;;;;6.67;5.97;;;;;;;22.67;28.19;98836.01;1746346;80;22335;-8
2021/03/14 05:13:48;;;;;;;10.50;5.62;;;;;;;22.66;28.24;98839.67;1772144;78;21156;-8
2021/03/14 05:16:17;;;;;;;6.78;6.08;;;;;;;22.66;28.26;98835.14;1734482;80;21200;-8
2021/03/14 05:18:45;;;;;;;6.35;5.75;;;;;;;22.66;28.31;98841.84;1759752;79;21586;-8
2021/03/14 05:21:13;;;;;;;6.60;5.78;;;;;;;22.66;28.25;98843.19;1769246;79;21214;-8
2021/03/14 05:23:41;;;;;;;7.10;6.40;;;;;;;22.67;28.33;98845.39;1735957;80;21188;-8
2021/03/14 05:26:11;;;;;;;6.22;5.62;;;;;;;22.65;28.28;98845.54;1779191;79;21312;-8
2021/03/14 05:28:41;;;;;;;5.45;5.05;;;;;;;22.65;28.28;98849.56;1753190;80;21962;-8
2021/03/14 05:31:28;;;;;;;6.08;5.40;;;;;;;22.66;28.27;98855.76;1782111;78;21656;-8
2021/03/14 05:34:02;;;;;;;5.90;5.35;;;;;;;22.67;28.28;98858.80;1779572;78;21177;-9
2021/03/14 05:36:29;;;;;;;5.08;4.58;;;;;;;22.66;28.20;98861.95;1781889;78;21590;-8
2021/03/14 05:38:59;;;;;;;6.70;5.47;;;;;;;22.66;28.16;98853.08;1783013;78;21148;-8
2021/03/14 05:41:27;;;;;;;5.37;4.97;;;;;;;22.65;28.16;98855.43;1754299;80;21357;-8
2021/03/14 05:43:54;;;;;;;18.73;9.40;;;;;;;22.65;28.46;98851.41;1781393;80;21117;-8
2021/03/14 05:46:22;;;;;;;18.10;8.10;;;;;;;22.66;28.69;98854.42;1760140;80;21180;-8
2021/03/14 05:48:50;;;;;;;17.42;8.00;;;;;;;22.67;29.32;98852.94;1773480;78;21117;-9
2021/03/14 05:51:24;;;;;;;15.85;7.37;;;;;;;22.67;29.64;98847.57;1782968;80;21137;-8
2021/03/14 05:53:55;;;;;;;15.10;7.10;;;;;;;22.67;29.66;98844.05;1775852;78;21396;-8
2021/03/14 05:56:23;;;;;;;12.25;7.70;;;;;;;22.69;29.54;98843.41;1762565;78;21662;-8
2021/03/14 05:58:51;;;;;;;14.20;7.47;;;;;;;22.68;29.54;98844.38;1756015;79;21128;-9
2021/03/14 06:01:25;;;;;;;14.43;7.22;;;;;;;22.69;29.35;98845.58;1787604;79;23756;-9
2021/03/14 06:03:54;;;;;;;14.05;6.72;;;;;;;22.71;29.29;98849.45;1749641;80;21129;-8
2021/03/14 06:06:21;;;;;;;12.78;6.75;;;;;;;22.71;29.10;98837.39;1776117;79;22245;-8
2021/03/14 06:08:48;;;;;;;13.15;6.87;;;;;;;22.71;29.04;98832.89;1749277;79;21598;-8
2021/03/14 06:11:18;;;;;;;18.30;6.90;;;;;;;22.72;28.89;98832.39;1747188;79;21625;-8
2021/03/14 06:13:46;;;;;;;14.25;6.60;;;;;;;22.73;29.12;98842.10;1748879;80;21579;-8
2021/03/14 06:16:14;;;;;;;13.50;6.40;;;;;;;22.74;29.53;98830.39;1769092;78;21214;-8
2021/03/14 06:18:43;;;;;;;13.10;6.53;;;;;;;22.76;29.62;98829.74;1763924;79;22087;-8
2021/03/14 06:21:24;;;;;;;16.73;7.40;;;;;;;22.79;29.62;98830.80;1746605;80;21662;-8
2021/03/14 06:24:00;;;;;;;12.13;6.97;;;;;;;22.80;29.77;98831.99;1806332;78;21105;-8
2021/03/14 06:26:48;;;;;;;11.83;6.20;;;;;;;22.84;29.52;98832.53;1722717;80;21208;-9
2021/03/14 06:29:21;;;;;;;12.40;6.65;;;;;;;22.84;29.43;98827.17;1733674;80;21162;-8
2021/03/14 06:32:00;;;;;;;16.80;7.08;;;;;;;22.87;29.79;98818.00;1759165;80;21232;-8
2021/03/14 06:34:34;;;;;;;16.60;7.08;;;;;;;22.88;30.03;98823.22;1755681;80;21146;-9
2021/03/14 06:37:12;;;;;;;19.52;6.70;;;;;;;22.92;29.90;98822.42;1741350;80;21077;-9
2021/03/14 06:39:44;;;;;;;15.58;6.37;;;;;;;22.95;30.07;98823.47;1753200;80;21268;-9
2021/03/14 06:42:31;;;;;;;15.48;6.65;;;;;;;22.99;30.07;98828.36;1736976;80;21188;-9
2021/03/14 06:45:11;;;;;;;15.23;6.62;;;;;;;22.99;29.66;98829.70;1761770;80;21671;-9
2021/03/14 06:47:57;;;;;;;12.70;6.53;;;;;;;22.97;29.94;98834.37;1852479;76;22826;-8
2021/03/14 06:50:37;;;;;;;12.60;6.80;;;;;;;22.91;30.00;98833.63;1787247;77;21574;-8
2021/03/14 06:53:15;;;;;;;12.40;6.15;;;;;;;22.89;29.65;98836.95;1801500;77;21207;-8
2021/03/14 06:55:43;;;;;;;11.50;6.25;;;;;;;22.87;29.57;98837.61;1796336;77;21169;-8
2021/03/14 06:58:29;;;;;;;9.93;5.95;;;;;;;22.84;29.52;98848.63;1826313;77;21156;-8
2021/03/14 07:01:18;;;;;;;11.38;5.50;;;;;;;22.79;29.35;98839.67;1823083;77;21102;-8
2021/03/14 07:03:51;;;;;;;12.15;6.08;;;;;;;22.75;29.38;98840.14;1827346;77;21597;-8
2021/03/14 07:06:25;;;;;;;10.60;5.72;;;;;;;22.72;29.51;98849.81;1816605;78;21191;-8
2021/03/14 07:08:58;;;;;;;;;;;;;;;22.70;28.98;98849.13;1836715;77;21404;-10
2021/03/14 07:11:43;;;;;;;9.63;5.47;;;;;;;22.68;29.18;98857.79;1836553;77;20251;-7
2021/03/14 07:14:16;;;;;;;8.63;5.33;;;;;;;22.68;29.02;98860.47;1805917;77;21163;-8
2021/03/14 07:16:53;;;;;;;10.70;5.10;;;;;;;22.65;29.14;98872.86;1781347;77;21153;-8
2021/03/14 07:19:28;;;;;;;9.05;5.08;;;;;;;22.64;29.04;98884.05;1823634;77;21398;-8
2021/03/14 07:22:08;;;;;;;6.33;4.70;;;;;;;22.58;28.89;98884.16;1796978;77;21177;-8
2021/03/14 07:24:42;;;;;;;6.30;4.53;;;;;;;22.54;29.11;98888.09;1821713;77;21120;-8
2021/03/14 07:27:12;;;;;;;6.80;4.55;;;;;;;22.52;28.83;98888.75;1824842;77;21179;-8
2021/03/14 07:29:41;;;;;;;9.08;4.83;;;;;;;22.47;28.48;98893.70;1816611;77;21101;-8
2021/03/14 07:32:09;;;;;;;9.88;5.00;;;;;;;22.36;28.73;98885.81;1803909;78;21176;-8
2021/03/14 07:34:37;;;;;;;12.23;4.92;;;;;;;22.29;28.69;98887.38;1834575;77;21112;-8
2021/03/14 07:37:05;;;;;;;5.40;4.50;;;;;;;22.23;28.64;98873.54;1797432;77;21179;-8
2021/03/14 07:39:32;;;;;;;8.45;4.95;;;;;;;22.23;28.57;98874.88;1802972;77;21190;-8
2021/03/14 07:42:01;;;;;;;6.55;4.55;;;;;;;22.23;28.76;98877.56;1835326;77;21116;-10
2021/03/14 07:44:28;;;;;;;9.03;4.45;;;;;;;22.25;29.09;98872.06;1806478;78;21179;-8
2021/03/14 07:46:56;;;;;;;9.05;4.25;;;;;;;22.31;29.60;98865.30;1844303;77;21189;-9
2021/03/14 07:49:27;;;;;;;10.90;4.45;;;;;;;22.36;29.77;98866.58;1826678;77;21203;-8
2021/03/14 07:52:02;;;;;;;7.85;4.80;;;;;;;22.45;29.87;98873.73;1820454;78;21378;-8
2021/03/14 07:54:38;;;;;;;16.67;5.37;;;;;;;22.52;30.19;98863.28;1838672;77;21214;-10
2021/03/14 07:57:06;;;;;;;16.40;4.55;;;;;;;22.56;30.12;98866.03;1793597;77;21164;-10
2021/03/14 07:59:35;;;;;;;9.98;4.60;;;;;;;22.61;30.30;98869.59;1834848;77;21209;-10
2021/03/14 08:02:28;;;;;;;10.08;5.33;;;;;;;22.65;30.76;98867.50;1795593;77;21156;-10
2021/03/14 08:05:01;;;;;;;14.18;4.50;;;;;;;22.70;30.61;98868.73;1815928;77;21251;-10
2021/03/14 08:07:40;;;;;;;16.27;4.90;;;;;;;22.79;30.88;98865.16;1837895;77;21585;-10
2021/03/14 08:10:10;;;;;;;12.50;4.72;;;;;;;22.93;31.05;98857.62;1808006;77;22533;-10
2021/03/14 08:12:39;;;;;;;12.60;4.35;;;;;;;23.08;31.11;98852.16;1834012;77;21124;-10
2021/03/14 08:15:28;;;;;;;10.03;4.75;;;;;;;23.21;30.85;98851.79;1786527;77;21136;-10
2021/03/14 08:18:01;;;;;;;16.80;4.75;;;;;;;23.28;30.51;98842.13;1844729;76;21124;-10
2021/03/14 08:20:46;;;;;;;7.37;3.85;;;;;;;23.26;30.15;98849.50;1809922;77;21169;-10
2021/03/14 08:23:19;;;;;;;11.33;4.28;;;;;;;23.25;30.51;98850.52;1794524;77;21234;-10
2021/03/14 08:25:49;;;;;;;8.93;4.25;;;;;;;23.26;30.39;98841.45;1843895;77;21144;-10
2021/03/14 08:28:35;;;;;;;9.23;3.90;;;;;;;23.24;30.84;98847.47;1763844;78;21148;-10
2021/03/14 08:31:08;;;;;;;24.95;4.25;;;;;;;23.26;31.11;98852.19;1836828;75;21148;-9
2021/03/14 08:33:46;;;;;;;7.70;3.85;;;;;;;23.30;30.94;98848.70;1800497;77;21140;-10
2021/03/14 08:36:35;;;;;;;7.60;4.12;;;;;;;23.34;30.96;98857.64;1809039;77;21971;-10
2021/03/14 08:39:07;;;;;;;15.88;5.28;;;;;;;23.42;30.80;98860.06;1824938;76;21474;-10
2021/03/14 08:41:47;;;;;;;6.70;5.22;;;;;;;23.45;30.75;98863.79;1791045;77;21141;-10
2021/03/14 08:44:39;;;;;;;7.70;5.12;;;;;;;23.45;30.06;98867.81;1830636;76;21542;-10
2021/03/14 08:47:14;;;;;;;7.33;4.75;;;;;;;23.37;29.42;98873.96;1842663;76;21177;-10
2021/03/14 08:49:55;;;;;;;8.50;4.08;;;;;;;23.26;29.32;98877.68;1831879;76;21220;-10
2021/03/14 08:52:25;;;;;;;7.72;4.60;;;;;;;23.18;29.42;98874.89;1804811;77;21152;-10
2021/03/14 08:55:11;;;;;;;4.15;3.72;;;;;;;23.09;29.20;98878.48;1811728;77;21571;-10
2021/03/14 08:57:39;;;;;;;5.67;4.55;;;;;;;22.99;29.40;98873.97;1776123;77;21172;-10
2021/03/14 09:00:11;;;;;;;11.68;4.53;;;;;;;22.92;28.97;98886.29;1819604;77;21097;-10
2021/03/14 09:02:40;;;;;;;5.12;4.10;;;;;;;22.84;28.80;98883.50;1814691;77;21181;-10
2021/03/14 09:05:14;;;;;;;6.33;3.72;;;;;;;22.70;28.41;98881.31;1803539;78;21186;-10
2021/03/14 09:08:01;;;;;;;5.80;3.52;;;;;;;22.58;29.19;98885.50;1877636;75;22645;1
2021/03/14 09:10:34;;;;;;;7.17;3.70;;;;;;;22.51;30.53;98884.39;1791906;77;21255;-8
2021/03/14 09:13:28;;;;;;;13.18;3.80;;;;;;;22.68;31.24;98880.58;1794392;77;22680;-8
2021/03/14 09:16:07;;;;;;;11.63;4.20;;;;;;;22.80;31.37;98874.06;1826681;77;21111;-8
2021/03/14 09:18:54;;;;;;;8.78;3.40;;;;;;;22.99;31.33;98878.50;1824582;76;21805;-8
2021/03/14 09:21:22;;;;;;;13.65;3.45;;;;;;;23.18;31.25;98873.55;1821965;76;21180;-8
2021/03/14 09:23:53;;;;;;;9.00;3.80;;;;;;;23.34;31.05;98874.25;1765581;79;21098;-8
2021/03/14 09:26:28;;;;;;;12.55;3.35;;;;;;;23.50;31.00;98856.99;1761819;79;21231;-11
2021/03/14 09:29:04;;;;;;;16.75;3.40;;;;;;;23.64;30.88;98856.95;1775244;78;21555;-8
2021/03/14 09:31:32;;;;;;;12.23;3.50;;;;;;;23.81;30.70;98851.23;1777864;78;21093;-10
2021/03/14 09:34:02;;;;;;;9.45;3.30;;;;;;;23.95;30.58;98852.55;1791575;76;21758;-8
2021/03/14 09:36:34;;;;;;;9.60;3.20;;;;;;;24.07;30.44;98844.61;1832867;76;21156;-8
2021/03/14 09:39:04;;;;;;;15.45;3.20;;;;;;;24.19;30.27;98844.34;1803928;78;21565;-11
2021/03/14 09:41:55;;;;;;;7.17;2.87;;;;;;;24.32;30.22;98839.91;1801887;77;22704;-8
2021/03/14 09:44:37;;;;;;;10.28;3.27;;;;;;;24.37;29.94;98835.73;1708412;78;21176;-8
2021/03/14 09:47:06;;;;;;;6.67;3.30;;;;;;;24.48;29.70;98837.33;1768960;79;21280;-8
2021/03/14 09:49:42;;;;;;;7.05;3.00;;;;;;;24.57;29.51;98840.93;1803888;78;21192;-8
2021/03/14 09:52:13;;;;;;;9.28;2.90;;;;;;;24.66;29.22;98840.82;1738633;78;21203;-8
2021/03/14 09:54:40;;;;;;;11.88;3.62;;;;;;;24.73;29.08;98841.03;1778636;78;22521;-8
2021/03/14 09:57:08;;;;;;;6.10;3.10;;;;;;;24.79;29.01;98839.02;1822311;77;21085;-9
2021/03/14 09:59:46;;;;;;;6.97;2.77;;;;;;;24.83;28.92;98839.05;1798003;78;21220;-8
2021/03/14 10:02:16;;;;;;;4.60;2.95;;;;;;;24.90;28.77;98842.42;1811237;78;21935;-8
2021/03/14 10:05:00;;;;;;;9.20;5.05;;;;;;;24.96;28.57;98837.23;1760957;79;22792;-9
2021/03/14 10:07:28;;;;;;;14.68;5.33;;;;;;;24.92;27.53;98835.05;1708023;82;21203;-9
2021/03/14 10:09:59;;;;;;;7.03;4.60;;;;;;;24.75;27.23;98834.98;1693314;80;21121;-8
2021/03/14 10:12:30;;;;;;;5.12;3.50;;;;;;;24.53;27.22;98840.86;1693699;81;21243;-8
2021/03/14 10:14:58;;;;;;;5.58;3.77;;;;;;;24.33;27.60;98838.41;1699140;81;21145;-9
2021/03/14 10:17:25;;;;;;;5.65;3.55;;;;;;;24.17;27.62;98823.50;1734982;80;21207;-9
2021/03/14 10:19:53;;;;;;;5.08;3.27;;;;;;;24.05;27.83;98822.91;1722765;80;21153;-9
2021/03/14 10:22:31;;;;;;;4.50;3.27;;;;;;;23.97;27.98;98824.19;1730660;80;21204;-9
2021/03/14 10:25:33;;;;;;;3.37;3.17;;;;;;;23.88;27.79;98829.48;1839822;75;22874;-13
2021/03/14 10:28:12;;;;;;;4.00;3.70;;;;;;;23.74;27.69;98821.97;1818242;77;21178;-9
2021/03/14 10:30:47;;;;;;;3.77;3.50;;;;;;;23.64;27.61;98815.33;1786995;77;21847;-9
2021/03/14 10:33:30;;;;;;;4.08;3.10;;;;;;;23.54;27.22;98814.56;1820921;77;21178;-9
2021/03/14 10:36:06;;;;;;;4.03;3.62;;;;;;;23.41;27.40;98810.07;1784500;77;21174;-10
2021/03/14 10:38:46;;;;;;;4.42;3.95;;;;;;;23.31;27.34;98802.92;1782465;77;21187;-9
2021/03/14 10:41:27;;;;;;;4.20;3.90;;;;;;;23.25;27.19;98798.66;1810771;77;21120;-10
2021/03/14 10:44:00;;;;;;;4.12;3.72;;;;;;;23.13;27.03;98808.28;1782549;77;21208;-10
2021/03/14 10:46:45;;;;;;;4.12;3.83;;;;;;;22.97;27.05;98803.52;1813384;77;21176;-10
2021/03/14 10:49:26;;;;;;;3.25;3.05;;;;;;;22.83;26.83;98798.68;1835854;76;21112;-10
2021/03/14 10:51:58;;;;;;;5.22;3.50;;;;;;;22.65;27.19;98791.91;1843519;75;21624;-10
2021/03/14 10:54:37;;;;;;;3.62;3.33;;;;;;;22.58;27.59;98797.02;1779941;77;21171;-10
2021/03/14 10:57:17;;;;;;;3.55;3.25;;;;;;;22.56;27.82;98790.97;1825565;76;22914;1
2021/03/14 11:00:05;;;;;;;4.05;3.62;;;;;;;22.52;28.01;98783.36;1778896;79;21614;-10
2021/03/14 11:02:41;;;;;;;4.60;3.95;;;;;;;22.50;28.21;98774.12;1768020;77;21168;-10
2021/03/14 11:05:08;;;;;;;4.92;4.53;;;;;;;22.49;27.94;98783.14;1762187;77;21183;-10
2021/03/14 11:07:37;;;;;;;5.78;5.08;;;;;;;22.44;27.50;98780.93;1782867;77;21128;-10
2021/03/14 11:10:26;;;;;;;4.90;4.50;;;;;;;22.34;27.43;98771.22;1826859;77;22762;-10
2021/03/14 11:12:55;;;;;;;5.12;4.72;;;;;;;22.17;27.23;98780.33;1806205;78;21187;-10
2021/03/14 11:15:31;;;;;;;6.97;6.28;;;;;;;22.02;27.42;98785.80;1833066;77;21198;-10
2021/03/14 11:18:26;;;;;;;5.40;4.90;;;;;;;21.88;27.55;98771.86;1760737;79;22800;-8
2021/03/14 11:21:06;;;;;;;5.50;5.00;;;;;;;21.74;27.74;98779.02;1714860;82;21214;-8
2021/03/14 11:23:34;;;;;;;6.47;5.42;;;;;;;21.64;27.98;98763.45;1724270;79;21205;-9
2021/03/14 11:26:04;;;;;;;5.67;5.17;;;;;;;21.60;27.97;98766.05;1750671;79;21159;-9
2021/03/14 11:28:40;;;;;;;11.28;5.72;;;;;;;21.54;27.93;98768.81;1755164;79;21623;-8
2021/03/14 11:31:07;;;;;;;245.07;214.70;;;;;;;21.50;28.09;98771.40;1755841;79;21116;-8
2021/03/14 11:33:35;;;;;;;89.30;72.90;;;;;;;21.47;28.25;98760.50;1759410;79;21166;-8
2021/03/14 11:36:05;;;;;;;76.22;64.97;;;;;;;21.44;28.32;98756.73;1733364;81;21150;-8
2021/03/14 11:38:37;;;;;;;58.40;49.27;;;;;;;21.44;28.57;98746.02;1753245;77;21159;-8
2021/03/14 11:41:10;;;;;;;48.48;39.23;;;;;;;21.45;28.40;98743.71;1780714;77;21234;-8
2021/03/14 11:43:56;;;;;;;39.53;32.55;;;;;;;21.43;28.40;98749.67;1796294;77;21195;-8
2021/03/14 11:46:26;;;;;;;28.80;25.40;;;;;;;21.45;28.83;98743.71;1748185;78;21194;-8
2021/03/14 11:48:56;;;;;;;23.25;20.37;;;;;;;21.58;28.99;98745.28;1747537;80;21199;-8
2021/03/14 11:51:25;;;;;;;21.37;17.02;;;;;;;21.65;28.71;98742.38;1751258;80;21155;-8
2021/03/14 11:53:56;;;;;;;15.60;13.90;;;;;;;21.68;28.71;98744.77;1746801;79;21132;-8
2021/03/14 11:56:25;;;;;;;18.05;13.60;;;;;;;21.70;28.79;98740.98;1748912;80;21203;-10
2021/03/14 11:58:58;;;;;;;21.85;12.65;;;;;;;21.74;28.86;98733.50;1753302;80;21128;-8
2021/03/14 12:01:27;;;;;;;10.85;9.68;;;;;;;21.78;28.88;98730.87;1755214;79;22343;-8
2021/03/14 12:03:57;;;;;;;12.45;9.43;;;;;;;21.83;28.66;98731.28;1769132;79;21143;-8